Time;durP1;ratioP1;P1;durP2;ratioP2;P2;SDS_P1;SDS_P2;PMS_P1;PMS_P2;Temp;Humidity;BMP_temperature;BMP_pressure;BME280_temperature;BME280_humidity;BME280_pressure;Samples;Min_cycle;Max_cycle;Signal;HPM_P1;HPM_P2
2023/05/27 00:01:25;;;;;;;12.40;7.85;;;;;;;;;;5044929;28;20721;-59
2023/05/27 00:03:50;;;;;;;13.63;8.30;;;;;;;;;;5045754;28;20072;-58
2023/05/27 00:06:16;;;;;;;14.33;8.00;;;;;;;;;;5045355;28;20084;-59
2023/05/27 00:08:41;;;;;;;14.85;8.48;;;;;;;;;;5027451;28;20273;-59
2023/05/27 00:11:06;;;;;;;15.43;8.23;;;;;;;;;;5045172;28;20039;-55
2023/05/27 00:13:31;;;;;;;12.47;8.30;;;;;;;;;;5045109;28;20029;-59
2023/05/27 00:15:57;;;;;;;16.13;8.73;;;;;;;;;;5044868;28;20670;-59
2023/05/27 00:18:22;;;;;;;13.07;8.75;;;;;;;;;;5044810;28;20013;-57
2023/05/27 00:20:48;;;;;;;14.48;8.18;;;;;;;;;;5044854;28;20012;-58
2023/05/27 00:23:13;;;;;;;12.48;8.98;;;;;;;;;;5044863;28;20354;-59
2023/05/27 00:25:38;;;;;;;11.45;8.27;;;;;;;;;;5045053;28;20098;-59
2023/05/27 00:28:04;;;;;;;15.30;7.90;;;;;;;;;;5045109;28;20372;-60
2023/05/27 00:30:30;;;;;;;12.68;8.57;;;;;;;;;;5044831;28;20067;-59
2023/05/27 00:32:55;;;;;;;10.90;7.65;;;;;;;;;;5045433;28;20360;-57
2023/05/27 00:35:20;;;;;;;14.82;8.20;;;;;;;;;;4992453;28;20045;-58
2023/05/27 00:37:46;;;;;;;12.10;8.07;;;;;;;;;;5044382;28;20025;-59
2023/05/27 00:40:12;;;;;;;13.88;7.90;;;;;;;;;;5044833;28;20799;-58
2023/05/27 00:42:37;;;;;;;12.25;8.10;;;;;;;;;;5044680;28;20452;-57
2023/05/27 00:45:03;;;;;;;11.50;7.88;;;;;;;;;;5044538;28;20071;-59
2023/05/27 00:47:29;;;;;;;13.15;8.57;;;;;;;;;;5044181;28;20024;-60
2023/05/27 00:49:55;;;;;;;15.23;7.95;;;;;;;;;;5044183;28;20039;-60
2023/05/27 00:52:20;;;;;;;10.35;7.53;;;;;;;;;;5044892;28;20020;-59
2023/05/27 00:54:46;;;;;;;11.70;8.02;;;;;;;;;;5044258;28;20087;-59
2023/05/27 00:57:11;;;;;;;16.95;8.25;;;;;;;;;;5043862;28;20100;-59
2023/05/27 00:59:36;;;;;;;17.63;8.25;;;;;;;;;;5044234;28;20021;-60
2023/05/27 01:02:02;;;;;;;17.10;7.97;;;;;;;;;;5043993;28;20025;-60
2023/05/27 01:04:27;;;;;;;19.15;8.15;;;;;;;;;;5043624;28;20079;-58
2023/05/27 01:06:52;;;;;;;19.20;8.15;;;;;;;;;;5008081;28;20053;-59
2023/05/27 01:09:41;;;;;;;15.25;8.70;;;;;;;;;;5043874;28;20031;-59
2023/05/27 01:12:18;;;;;;;9.32;7.72;;;;;;;;;;4943052;29;20411;-59
2023/05/27 01:14:43;;;;;;;12.50;8.40;;;;;;;;;;4943087;28;20533;-59
2023/05/27 01:17:09;;;;;;;13.70;9.57;;;;;;;;;;4943059;29;20128;-59
2023/05/27 01:19:36;;;;;;;13.80;8.50;;;;;;;;;;4942790;29;20416;-59
2023/05/27 01:22:02;;;;;;;16.80;8.45;;;;;;;;;;4942774;29;20082;-59
2023/05/27 01:24:27;;;;;;;14.65;7.97;;;;;;;;;;4942802;29;20035;-59
2023/05/27 01:26:53;;;;;;;15.55;8.63;;;;;;;;;;4943327;29;20937;-58
2023/05/27 01:29:19;;;;;;;13.45;8.80;;;;;;;;;;4942837;29;20041;-59
2023/05/27 01:31:49;;;;;;;17.05;8.73;;;;;;;;;;4942910;29;20035;-59
2023/05/27 01:34:17;;;;;;;11.57;7.82;;;;;;;;;;4942956;29;20118;-59
2023/05/27 01:36:45;;;;;;;15.65;9.00;;;;;;;;;;4943148;28;20204;-59
2023/05/27 01:39:12;;;;;;;11.37;7.73;;;;;;;;;;4942826;29;20023;-58
2023/05/27 01:41:38;;;;;;;13.77;8.45;;;;;;;;;;4942669;29;20336;-59
2023/05/27 01:44:04;;;;;;;14.95;8.70;;;;;;;;;;4942620;29;20130;-60
2023/05/27 01:46:29;;;;;;;15.52;8.75;;;;;;;;;;4943113;29;20027;-58
2023/05/27 01:48:55;;;;;;;12.45;7.95;;;;;;;;;;4983316;28;20043;-60
2023/05/27 01:51:20;;;;;;;10.20;7.85;;;;;;;;;;5043255;28;20021;-59
2023/05/27 01:53:45;;;;;;;16.58;8.15;;;;;;;;;;5043024;28;20021;-60
2023/05/27 01:56:10;;;;;;;13.40;8.45;;;;;;;;;;5043695;28;20413;-59
2023/05/27 01:58:36;;;;;;;11.45;8.63;;;;;;;;;;5043221;28;20104;-60
2023/05/27 02:01:01;;;;;;;12.02;7.60;;;;;;;;;;5042727;28;20538;-54
2023/05/27 02:03:26;;;;;;;11.13;8.30;;;;;;;;;;5007351;28;20029;-59
2023/05/27 02:05:52;;;;;;;13.07;8.40;;;;;;;;;;5042971;28;20013;-59
2023/05/27 02:08:17;;;;;;;12.25;7.68;;;;;;;;;;5043265;28;20013;-58
2023/05/27 02:10:42;;;;;;;13.90;7.85;;;;;;;;;;5042989;28;20051;-59
2023/05/27 02:13:08;;;;;;;12.77;7.30;;;;;;;;;;5042862;28;20476;-60
2023/05/27 02:15:33;;;;;;;13.95;8.05;;;;;;;;;;5042631;28;20316;-58
2023/05/27 02:17:58;;;;;;;12.53;7.90;;;;;;;;;;5042962;28;20032;-59
2023/05/27 02:20:23;;;;;;;8.75;6.75;;;;;;;;;;5043105;28;20701;-62
2023/05/27 02:22:52;;;;;;;12.52;7.78;;;;;;;;;;5045707;28;20419;-59
2023/05/27 02:25:17;;;;;;;12.40;7.80;;;;;;;;;;5010999;28;20025;-59
2023/05/27 02:27:47;;;;;;;15.32;7.63;;;;;;;;;;5047229;28;20190;-59
2023/05/27 02:30:12;;;;;;;10.50;8.05;;;;;;;;;;5046809;28;20025;-59
2023/05/27 02:32:38;;;;;;;12.75;7.93;;;;;;;;;;5046591;28;20024;-60
2023/05/27 02:35:03;;;;;;;15.25;7.97;;;;;;;;;;5046820;28;20473;-59
2023/05/27 02:37:28;;;;;;;11.85;7.60;;;;;;;;;;5010990;28;20036;-59
2023/05/27 02:39:55;;;;;;;11.02;7.60;;;;;;;;;;5046460;28;20017;-59
2023/05/27 02:42:20;;;;;;;10.82;7.68;;;;;;;;;;5046933;28;20108;-59
2023/05/27 02:44:45;;;;;;;12.15;7.72;;;;;;;;;;5046797;28;20104;-60
2023/05/27 02:47:10;;;;;;;13.03;7.50;;;;;;;;;;5046565;28;20420;-58
2023/05/27 02:49:36;;;;;;;10.15;7.10;;;;;;;;;;5046087;28;20296;-59
2023/05/27 02:52:01;;;;;;;11.40;7.20;;;;;;;;;;5028631;28;20513;-59
2023/05/27 02:54:26;;;;;;;10.68;7.35;;;;;;;;;;5045823;28;20021;-58
2023/05/27 02:56:52;;;;;;;12.23;6.60;;;;;;;;;;5027965;28;20035;-59
2023/05/27 02:59:17;;;;;;;10.03;6.50;;;;;;;;;;5045703;28;20032;-59
2023/05/27 03:01:42;;;;;;;15.73;6.95;;;;;;;;;;5046291;28;20293;-58
2023/05/27 03:04:07;;;;;;;12.00;6.47;;;;;;;;;;5045910;28;20033;-59
2023/05/27 03:06:33;;;;;;;11.77;7.07;;;;;;;;;;5046051;28;20041;-59
2023/05/27 03:08:58;;;;;;;8.30;6.93;;;;;;;;;;5045626;28;20257;-59
2023/05/27 03:11:23;;;;;;;15.20;7.20;;;;;;;;;;5045691;28;20106;-59
2023/05/27 03:13:48;;;;;;;15.47;6.57;;;;;;;;;;5045965;28;20315;-59
2023/05/27 03:16:14;;;;;;;9.85;7.15;;;;;;;;;;5045496;28;20708;-59
2023/05/27 03:18:39;;;;;;;11.85;6.68;;;;;;;;;;5045786;28;20071;-59
2023/05/27 03:21:04;;;;;;;15.75;7.25;;;;;;;;;;4993426;28;20481;-58
2023/05/27 03:23:30;;;;;;;11.85;7.55;;;;;;;;;;5045705;28;20074;-60
2023/05/27 03:25:55;;;;;;;16.85;7.97;;;;;;;;;;5045493;28;20017;-59
2023/05/27 03:28:21;;;;;;;11.93;7.80;;;;;;;;;;5045951;28;20492;-59
2023/05/27 03:30:46;;;;;;;15.35;7.70;;;;;;;;;;5045339;28;20392;-57
2023/05/27 03:33:11;;;;;;;15.50;7.45;;;;;;;;;;5045314;28;20021;-58
2023/05/27 03:35:36;;;;;;;12.17;6.90;;;;;;;;;;5045128;28;20110;-59
2023/05/27 03:38:02;;;;;;;10.13;7.07;;;;;;;;;;5045453;28;20242;-60
2023/05/27 03:40:27;;;;;;;13.13;7.03;;;;;;;;;;5045344;28;20435;-59
2023/05/27 03:42:53;;;;;;;14.25;7.78;;;;;;;;;;4993342;28;20137;-58
2023/05/27 03:45:18;;;;;;;10.45;6.97;;;;;;;;;;5045526;28;20025;-58
2023/05/27 03:47:44;;;;;;;11.70;8.30;;;;;;;;;;5045236;28;20384;-59
2023/05/27 03:50:09;;;;;;;15.70;8.57;;;;;;;;;;5044956;28;20243;-58
2023/05/27 03:52:35;;;;;;;10.63;7.93;;;;;;;;;;5044896;28;20348;-59
2023/05/27 03:55:00;;;;;;;10.35;7.70;;;;;;;;;;5045050;28;20465;-59
2023/05/27 03:57:25;;;;;;;15.40;8.40;;;;;;;;;;5044708;28;20029;-59
2023/05/27 03:59:51;;;;;;;14.75;8.50;;;;;;;;;;5045391;28;20393;-59
2023/05/27 04:02:16;;;;;;;12.18;7.95;;;;;;;;;;5044232;28;20432;-60
2023/05/27 04:04:41;;;;;;;15.48;8.15;;;;;;;;;;5044990;28;20025;-59
2023/05/27 04:07:07;;;;;;;16.02;8.32;;;;;;;;;;4992338;28;20081;-58
2023/05/27 04:09:32;;;;;;;12.65;8.68;;;;;;;;;;5045075;28;20695;-59
2023/05/27 04:11:57;;;;;;;16.10;8.50;;;;;;;;;;5044518;28;20024;-58
2023/05/27 04:14:23;;;;;;;13.38;8.13;;;;;;;;;;5044641;28;20051;-59
2023/05/27 04:16:49;;;;;;;14.82;9.50;;;;;;;;;;5044515;28;20473;-59
2023/05/27 04:19:14;;;;;;;11.68;8.13;;;;;;;;;;4993006;28;20025;-59
2023/05/27 04:21:40;;;;;;;16.00;8.27;;;;;;;;;;5044192;28;20017;-59
2023/05/27 04:24:05;;;;;;;10.68;7.50;;;;;;;;;;5044272;28;20040;-58
2023/05/27 04:26:32;;;;;;;12.90;7.95;;;;;;;;;;5044539;28;20048;-58
2023/05/27 04:29:00;;;;;;;11.55;7.45;;;;;;;;;;5044606;28;20024;-60
2023/05/27 04:31:28;;;;;;;12.05;7.85;;;;;;;;;;5044288;28;20044;-59
2023/05/27 04:33:54;;;;;;;10.43;7.50;;;;;;;;;;5043953;28;20036;-59
2023/05/27 04:36:24;;;;;;;12.15;7.90;;;;;;;;;;5026294;28;20021;-59
2023/05/27 04:38:50;;;;;;;13.38;7.97;;;;;;;;;;5044111;28;20530;-59
2023/05/27 04:41:15;;;;;;;18.05;8.07;;;;;;;;;;5026033;28;20020;-59
2023/05/27 04:43:42;;;;;;;12.82;7.57;;;;;;;;;;5044392;28;20028;-59
2023/05/27 04:46:07;;;;;;;11.73;7.53;;;;;;;;;;5043633;28;20477;-59
2023/05/27 04:48:35;;;;;;;11.32;7.13;;;;;;;;;;5044127;28;20103;-59
2023/05/27 04:51:00;;;;;;;10.07;6.57;;;;;;;;;;5043772;28;20245;-59
2023/05/27 04:53:25;;;;;;;12.23;7.22;;;;;;;;;;5007866;28;20071;-59
2023/05/27 04:55:51;;;;;;;13.03;6.60;;;;;;;;;;5043688;28;20051;-59
2023/05/27 04:58:16;;;;;;;13.23;8.30;;;;;;;;;;5043251;28;20749;-59
2023/05/27 05:03:20;;;;;;;14.93;7.13;;;;;;;;;;4994236;28;20055;-58
2023/05/27 05:05:45;;;;;;;11.93;7.63;;;;;;;;;;5043400;28;20261;-59
2023/05/27 05:08:10;;;;;;;12.63;7.60;;;;;;;;;;5025653;28;20017;-58
2023/05/27 05:10:36;;;;;;;10.37;6.97;;;;;;;;;;5044088;28;20040;-59
2023/05/27 05:13:01;;;;;;;9.63;6.72;;;;;;;;;;5043725;28;20250;-59
2023/05/27 05:15:26;;;;;;;15.60;7.43;;;;;;;;;;5024473;28;20120;-59
2023/05/27 05:17:52;;;;;;;14.57;7.78;;;;;;;;;;5043618;28;20634;-59
2023/05/27 05:20:17;;;;;;;10.27;7.28;;;;;;;;;;5043881;28;20151;-59
2023/05/27 05:22:42;;;;;;;14.10;7.25;;;;;;;;;;5043418;28;20040;-59
2023/05/27 05:25:08;;;;;;;12.00;7.60;;;;;;;;;;5025618;28;20465;-59
2023/05/27 05:27:34;;;;;;;14.27;8.02;;;;;;;;;;5043393;28;20049;-59
2023/05/27 05:29:59;;;;;;;12.90;7.15;;;;;;;;;;5043821;28;20021;-60
2023/05/27 05:32:24;;;;;;;10.90;7.15;;;;;;;;;;5043426;28;20020;-60
2023/05/27 05:34:50;;;;;;;15.90;8.60;;;;;;;;;;5042965;28;20671;-59
2023/05/27 05:37:15;;;;;;;14.57;7.57;;;;;;;;;;5042950;28;20246;-59
2023/05/27 05:39:41;;;;;;;16.42;7.25;;;;;;;;;;5025345;28;20455;-58
2023/05/27 05:42:07;;;;;;;13.23;7.70;;;;;;;;;;5043078;28;20074;-58
2023/05/27 05:44:34;;;;;;;13.85;7.40;;;;;;;;;;5043147;28;20029;-58
2023/05/27 05:46:59;;;;;;;11.85;7.15;;;;;;;;;;5043354;28;20021;-60
2023/05/27 05:49:24;;;;;;;11.13;7.13;;;;;;;;;;5042772;28;20479;-59
2023/05/27 05:51:49;;;;;;;14.98;6.72;;;;;;;;;;4991227;28;20086;-58
2023/05/27 05:54:15;;;;;;;11.77;6.78;;;;;;;;;;5042689;28;20021;-60
2023/05/27 05:56:40;;;;;;;12.13;7.22;;;;;;;;;;5043136;28;20028;-59
2023/05/27 05:59:05;;;;;;;15.10;6.93;;;;;;;;;;5047144;28;20452;-57
2023/05/27 06:01:31;;;;;;;15.25;7.18;;;;;;;;;;5047324;28;20029;-59
2023/05/27 06:03:56;;;;;;;12.70;6.88;;;;;;;;;;5047208;28;20021;-59
2023/05/27 06:06:22;;;;;;;13.57;6.32;;;;;;;;;;5046941;28;20103;-60
2023/05/27 06:08:47;;;;;;;16.90;6.75;;;;;;;;;;5046696;28;20528;-60
2023/05/27 06:11:12;;;;;;;10.60;7.53;;;;;;;;;;5046578;28;20079;-59
2023/05/27 06:13:38;;;;;;;10.27;6.83;;;;;;;;;;5046679;28;20021;-60
2023/05/27 06:16:03;;;;;;;13.88;6.57;;;;;;;;;;5046359;28;20786;-59
2023/05/27 06:18:29;;;;;;;9.32;6.07;;;;;;;;;;5046983;28;20029;-60
2023/05/27 06:20:54;;;;;;;10.18;6.78;;;;;;;;;;5046518;28;20484;-59
2023/05/27 06:23:19;;;;;;;15.35;6.78;;;;;;;;;;5046516;28;20025;-59
2023/05/27 06:25:45;;;;;;;17.02;8.38;;;;;;;;;;5028795;28;20449;-59
2023/05/27 06:28:10;;;;;;;11.82;6.78;;;;;;;;;;5046913;28;20103;-57
2023/05/27 06:30:36;;;;;;;14.05;6.88;;;;;;;;;;5046486;28;20057;-58
2023/05/27 06:33:01;;;;;;;10.30;6.18;;;;;;;;;;5046603;28;20024;-59
2023/05/27 06:35:27;;;;;;;11.07;6.40;;;;;;;;;;5046237;28;20423;-60
2023/05/27 06:37:52;;;;;;;17.20;6.47;;;;;;;;;;5046820;28;20033;-60
2023/05/27 06:40:17;;;;;;;11.73;6.63;;;;;;;;;;5046102;28;20764;-59
2023/05/27 06:42:43;;;;;;;10.38;6.30;;;;;;;;;;5046430;28;20299;-59
2023/05/27 06:45:09;;;;;;;15.23;6.00;;;;;;;;;;5046419;28;20025;-59
2023/05/27 06:47:34;;;;;;;11.95;6.40;;;;;;;;;;5045800;28;20642;-59
2023/05/27 06:49:59;;;;;;;11.97;5.30;;;;;;;;;;5046620;28;20103;-59
2023/05/27 06:52:24;;;;;;;15.60;5.75;;;;;;;;;;5046038;28;20635;-59
2023/05/27 06:54:50;;;;;;;13.88;5.18;;;;;;;;;;5045590;28;20024;-60
2023/05/27 06:57:15;;;;;;;11.73;5.37;;;;;;;;;;5045440;28;20029;-60
2023/05/27 06:59:40;;;;;;;15.00;5.45;;;;;;;;;;5045936;28;20625;-59
2023/05/27 07:02:06;;;;;;;12.10;5.88;;;;;;;;;;5046086;28;20339;-58
2023/05/27 07:04:31;;;;;;;12.43;5.38;;;;;;;;;;5045869;28;20083;-59
2023/05/27 07:06:56;;;;;;;11.98;5.07;;;;;;;;;;5045719;28;20045;-59
2023/05/27 07:09:22;;;;;;;13.02;5.22;;;;;;;;;;5045335;28;20032;-59
2023/05/27 07:11:47;;;;;;;11.20;5.07;;;;;;;;;;5045424;28;20025;-60
2023/05/27 07:14:12;;;;;;;8.15;4.45;;;;;;;;;;5045387;28;20277;-59
2023/05/27 07:16:37;;;;;;;11.93;5.07;;;;;;;;;;5045589;28;20025;-59
2023/05/27 07:19:03;;;;;;;13.97;5.47;;;;;;;;;;5045134;28;20116;-59
2023/05/27 07:21:28;;;;;;;13.25;5.03;;;;;;;;;;5045168;28;20300;-59
2023/05/27 07:23:53;;;;;;;19.98;5.28;;;;;;;;;;5025966;28;20036;-58
2023/05/27 07:26:19;;;;;;;11.15;6.07;;;;;;;;;;5045554;28;20075;-60
2023/05/27 07:28:46;;;;;;;11.52;5.57;;;;;;;;;;5045847;28;20024;-58
2023/05/27 07:31:11;;;;;;;15.02;5.07;;;;;;;;;;5045161;28;20104;-59
2023/05/27 07:33:36;;;;;;;10.32;4.50;;;;;;;;;;5045010;28;20115;-58
2023/05/27 07:36:02;;;;;;;11.68;5.05;;;;;;;;;;5045355;28;20554;-60
2023/05/27 07:38:27;;;;;;;9.68;4.60;;;;;;;;;;5045613;28;20491;-57
2023/05/27 07:40:52;;;;;;;22.30;5.77;;;;;;;;;;5045114;28;20017;-60
2023/05/27 07:43:17;;;;;;;12.70;5.23;;;;;;;;;;5044735;28;20242;-60
2023/05/27 07:45:43;;;;;;;9.53;4.27;;;;;;;;;;5026957;28;20245;-60
2023/05/27 07:48:08;;;;;;;11.18;4.63;;;;;;;;;;5045189;28;20300;-60
2023/05/27 07:50:33;;;;;;;11.67;4.10;;;;;;;;;;5044850;28;20033;-60
2023/05/27 07:52:59;;;;;;;11.13;4.40;;;;;;;;;;5045414;28;20021;-59
2023/05/27 07:55:24;;;;;;;7.68;3.83;;;;;;;;;;5044508;28;20278;-59
2023/05/27 07:57:49;;;;;;;15.27;5.05;;;;;;;;;;5044568;28;20029;-56
2023/05/27 08:00:15;;;;;;;13.63;5.13;;;;;;;;;;5044685;28;20108;-60
2023/05/27 08:02:41;;;;;;;16.27;4.80;;;;;;;;;;5044781;28;20025;-58
2023/05/27 08:05:07;;;;;;;15.05;4.70;;;;;;;;;;5026750;28;20017;-60
2023/05/27 08:07:32;;;;;;;11.38;4.53;;;;;;;;;;5044548;28;20053;-58
2023/05/27 08:09:57;;;;;;;10.13;4.27;;;;;;;;;;5044463;28;20029;-60
2023/05/27 08:12:23;;;;;;;16.57;4.50;;;;;;;;;;5044386;28;20257;-57
2023/05/27 08:14:48;;;;;;;11.57;5.20;;;;;;;;;;5044034;28;20281;-60
2023/05/27 08:17:14;;;;;;;13.10;4.45;;;;;;;;;;5044094;28;20250;-59
2023/05/27 08:19:39;;;;;;;11.07;4.10;;;;;;;;;;5043518;28;20440;-60
2023/05/27 08:22:08;;;;;;;12.02;4.25;;;;;;;;;;5044130;28;20039;-60
2023/05/27 08:24:33;;;;;;;;;;;;;;;;;;5026888;28;20035;-59
2023/05/27 08:26:59;;;;;;;10.60;4.82;;;;;;;;;;5044642;28;19905;-60
2023/05/27 08:29:27;;;;;;;18.88;5.28;;;;;;;;;;5044082;28;20042;-60
2023/05/27 08:31:53;;;;;;;10.57;4.40;;;;;;;;;;5044045;28;20055;-59
2023/05/27 08:34:18;;;;;;;11.32;4.90;;;;;;;;;;5043759;28;20270;-61
2023/05/27 08:36:43;;;;;;;12.07;5.80;;;;;;;;;;5026294;28;20075;-61
2023/05/27 08:39:09;;;;;;;15.30;4.47;;;;;;;;;;5044186;28;20056;-60
2023/05/27 08:41:35;;;;;;;10.85;4.10;;;;;;;;;;5043662;28;20025;-60
2023/05/27 08:44:01;;;;;;;9.75;4.30;;;;;;;;;;5043761;28;20035;-60
2023/05/27 08:46:26;;;;;;;9.23;4.32;;;;;;;;;;5043422;28;20236;-60
2023/05/27 08:48:52;;;;;;;12.20;3.78;;;;;;;;;;5044120;28;20035;-60
2023/05/27 08:51:18;;;;;;;12.90;4.22;;;;;;;;;;5043827;28;20424;-59
2023/05/27 08:53:44;;;;;;;12.27;4.55;;;;;;;;;;5043983;28;20449;-58
2023/05/27 08:56:12;;;;;;;7.65;4.20;;;;;;;;;;5043657;28;20082;-59
2023/05/27 08:58:38;;;;;;;14.43;4.20;;;;;;;;;;5043926;28;20112;-60
2023/05/27 09:01:06;;;;;;;11.18;4.40;;;;;;;;;;5025788;28;20104;-59
2023/05/27 09:03:31;;;;;;;14.30;4.53;;;;;;;;;;5043240;28;20573;-59
2023/05/27 09:05:57;;;;;;;6.82;3.70;;;;;;;;;;5043357;28;20364;-60
2023/05/27 09:08:22;;;;;;;11.40;4.32;;;;;;;;;;5043259;28;20538;-60
2023/05/27 09:10:48;;;;;;;8.88;3.90;;;;;;;;;;5043807;28;20424;-61
2023/05/27 09:13:13;;;;;;;13.53;4.60;;;;;;;;;;5043080;28;20048;-60
2023/05/27 09:15:40;;;;;;;7.47;4.00;;;;;;;;;;5043240;28;20292;-58
2023/05/27 09:18:06;;;;;;;7.38;4.18;;;;;;;;;;5043178;28;20254;-60
2023/05/27 09:20:31;;;;;;;9.88;3.95;;;;;;;;;;5043365;28;20031;-60
2023/05/27 09:22:58;;;;;;;7.43;3.83;;;;;;;;;;5043171;28;20021;-60
2023/05/27 09:25:27;;;;;;;14.85;4.32;;;;;;;;;;5043124;28;20059;-60
2023/05/27 09:27:52;;;;;;;10.65;4.05;;;;;;;;;;5043027;28;20460;-60
2023/05/27 09:30:19;;;;;;;14.13;3.78;;;;;;;;;;5042895;28;20091;-59
2023/05/27 09:32:45;;;;;;;7.50;4.03;;;;;;;;;;5043022;28;20472;-57
2023/05/27 09:35:11;;;;;;;12.18;4.53;;;;;;;;;;5042985;28;20055;-61
2023/05/27 09:37:36;;;;;;;9.18;4.15;;;;;;;;;;5042781;28;20029;-60
2023/05/27 09:40:07;;;;;;;12.38;4.45;;;;;;;;;;5042648;28;20067;-60
2023/05/27 09:42:42;;;;;;;7.13;3.83;;;;;;;;;;5043021;28;20074;-60
2023/05/27 09:45:12;;;;;;;8.88;4.25;;;;;;;;;;5042457;28;20056;-58
2023/05/27 09:47:40;;;;;;;8.93;3.88;;;;;;;;;;5043098;28;20029;-60
2023/05/27 09:50:07;;;;;;;10.60;3.97;;;;;;;;;;5042446;28;20025;-60
2023/05/27 09:52:34;;;;;;;4.78;3.40;;;;;;;;;;5024893;28;20067;-60
2023/05/27 09:54:59;;;;;;;12.90;3.78;;;;;;;;;;5042526;28;20021;-60
2023/05/27 09:57:25;;;;;;;10.52;3.70;;;;;;;;;;5006828;28;20496;-61
2023/05/27 09:59:50;;;;;;;8.18;3.70;;;;;;;;;;5042238;28;20390;-60
2023/05/27 10:02:17;;;;;;;10.25;3.83;;;;;;;;;;5042801;28;20217;-61
2023/05/27 10:04:43;;;;;;;17.13;4.82;;;;;;;;;;5042677;28;20103;-60
2023/05/27 10:07:09;;;;;;;9.30;4.20;;;;;;;;;;5042482;28;20128;-60
2023/05/27 10:09:34;;;;;;;7.72;4.05;;;;;;;;;;5042638;28;20078;-60
2023/05/27 10:12:01;;;;;;;11.23;4.23;;;;;;;;;;5043283;28;20522;-59
2023/05/27 10:14:26;;;;;;;14.20;3.95;;;;;;;;;;5024291;28;20308;-60
2023/05/27 10:16:53;;;;;;;13.98;4.55;;;;;;;;;;5042524;28;20036;-61
2023/05/27 10:19:19;;;;;;;9.07;3.95;;;;;;;;;;5024965;28;20428;-59
2023/05/27 10:21:45;;;;;;;14.38;4.40;;;;;;;;;;5042454;28;20078;-61
2023/05/27 10:24:11;;;;;;;10.93;4.13;;;;;;;;;;5025038;28;20536;-61
2023/05/27 10:26:40;;;;;;;9.07;4.00;;;;;;;;;;5042542;28;20104;-58
2023/05/27 10:29:10;;;;;;;10.30;3.92;;;;;;;;;;5042718;28;20028;-60
2023/05/27 10:31:39;;;;;;;6.72;3.90;;;;;;;;;;5042109;28;20108;-60
2023/05/27 10:34:08;;;;;;;5.82;3.85;;;;;;;;;;5024650;28;20372;-58
2023/05/27 10:36:33;;;;;;;;;;;;;;;;;;5042920;28;20037;-60
2023/05/27 10:39:01;;;;;;;13.70;4.47;;;;;;;;;;5042171;28;19950;-60
2023/05/27 10:41:29;;;;;;;9.83;3.27;;;;;;;;;;5042196;28;20110;-61
2023/05/27 10:43:56;;;;;;;8.80;4.10;;;;;;;;;;5043960;28;20301;-60
2023/05/27 10:46:21;;;;;;;10.48;3.85;;;;;;;;;;5046382;28;20024;-61
2023/05/27 10:48:46;;;;;;;8.80;3.72;;;;;;;;;;5045794;28;20499;-60
2023/05/27 10:51:12;;;;;;;16.77;4.23;;;;;;;;;;5046017;28;20432;-60
2023/05/27 10:53:37;;;;;;;19.80;4.40;;;;;;;;;;5045529;28;20025;-60
2023/05/27 10:56:03;;;;;;;13.95;3.42;;;;;;;;;;5045428;28;20021;-60
2023/05/27 10:58:28;;;;;;;7.88;3.90;;;;;;;;;;5046052;28;20150;-61
2023/05/27 11:00:54;;;;;;;7.95;3.83;;;;;;;;;;5046266;28;20037;-61
2023/05/27 11:03:23;;;;;;;8.50;3.97;;;;;;;;;;5046490;28;20473;-60
2023/05/27 11:06:07;;;;;;;9.98;4.45;;;;;;;;;;5045668;28;20035;-59
2023/05/27 11:08:33;;;;;;;9.45;4.05;;;;;;;;;;5045822;28;20025;-60
2023/05/27 11:11:02;;;;;;;12.05;3.35;;;;;;;;;;5045921;28;20486;-60
2023/05/27 11:13:34;;;;;;;9.85;4.28;;;;;;;;;;5045584;28;20032;-61
2023/05/27 11:16:01;;;;;;;8.13;3.50;;;;;;;;;;5045489;28;20051;-60
2023/05/27 11:18:33;;;;;;;11.77;4.15;;;;;;;;;;5045785;28;20082;-60
2023/05/27 11:20:58;;;;;;;9.15;4.38;;;;;;;;;;5045318;28;20532;-59
2023/05/27 11:23:33;;;;;;;15.07;4.30;;;;;;;;;;5045054;28;20013;-61
2023/05/27 11:25:58;;;;;;;10.68;4.30;;;;;;;;;;5045140;28;20147;-61
2023/05/27 11:28:23;;;;;;;9.00;3.97;;;;;;;;;;5045657;28;20088;-60
2023/05/27 11:30:49;;;;;;;14.77;4.28;;;;;;;;;;5045063;28;20688;-60
2023/05/27 11:33:14;;;;;;;6.53;3.70;;;;;;;;;;5045032;28;20021;-59
2023/05/27 11:35:39;;;;;;;12.60;4.35;;;;;;;;;;5044922;28;20494;-59
2023/05/27 11:38:15;;;;;;;10.70;4.03;;;;;;;;;;5045080;28;20025;-61
2023/05/27 11:40:40;;;;;;;8.50;3.88;;;;;;;;;;5045264;28;20117;-57
2023/05/27 11:43:06;;;;;;;10.80;4.17;;;;;;;;;;5045327;28;20132;-59
2023/05/27 11:45:34;;;;;;;6.35;3.78;;;;;;;;;;5045207;28;20029;-61
2023/05/27 11:47:59;;;;;;;7.15;3.70;;;;;;;;;;5009515;28;20528;-60
2023/05/27 11:50:27;;;;;;;7.20;4.00;;;;;;;;;;5045367;28;20035;-60
2023/05/27 11:52:53;;;;;;;7.22;3.85;;;;;;;;;;5045093;28;20536;-61
2023/05/27 11:55:18;;;;;;;8.30;4.10;;;;;;;;;;5044664;28;20036;-61
2023/05/27 11:57:43;;;;;;;8.63;3.80;;;;;;;;;;5009019;28;20028;-60
2023/05/27 12:00:09;;;;;;;7.10;3.75;;;;;;;;;;5044601;28;20254;-60
2023/05/27 12:02:35;;;;;;;7.10;3.60;;;;;;;;;;4992821;28;20040;-59
2023/05/27 12:05:00;;;;;;;12.68;4.38;;;;;;;;;;5044969;28;20122;-59
2023/05/27 12:07:26;;;;;;;9.50;3.90;;;;;;;;;;5044440;28;20056;-59
2023/05/27 12:09:51;;;;;;;12.60;4.00;;;;;;;;;;5044370;28;20114;-60
2023/05/27 12:12:18;;;;;;;6.83;3.43;;;;;;;;;;5044468;28;20021;-61
2023/05/27 12:14:43;;;;;;;7.60;4.03;;;;;;;;;;5044572;28;20339;-60
2023/05/27 12:17:09;;;;;;;5.83;3.60;;;;;;;;;;5044209;28;20021;-60
2023/05/27 12:19:34;;;;;;;7.77;3.50;;;;;;;;;;5044189;28;20729;-60
2023/05/27 12:22:00;;;;;;;6.97;3.60;;;;;;;;;;4992311;28;20029;-60
2023/05/27 12:24:25;;;;;;;4.57;3.75;;;;;;;;;;5044416;28;20028;-60
2023/05/27 12:26:50;;;;;;;7.47;4.17;;;;;;;;;;5044373;28;20017;-60
2023/05/27 12:29:15;;;;;;;7.93;3.90;;;;;;;;;;5044465;28;20017;-60
2023/05/27 12:31:41;;;;;;;11.63;4.47;;;;;;;;;;5044137;28;20847;-59
2023/05/27 12:34:06;;;;;;;9.13;4.10;;;;;;;;;;5044167;28;20458;-60
2023/05/27 12:36:32;;;;;;;12.37;4.30;;;;;;;;;;5043937;28;20032;-61
2023/05/27 12:38:57;;;;;;;9.15;3.58;;;;;;;;;;5044110;28;20031;-60
2023/05/27 12:41:22;;;;;;;7.10;3.87;;;;;;;;;;5043545;28;20060;-57
2023/05/27 12:43:48;;;;;;;7.13;4.07;;;;;;;;;;5043387;28;20310;-61
2023/05/27 12:46:13;;;;;;;7.13;3.83;;;;;;;;;;5043954;28;20067;-60
2023/05/27 12:48:38;;;;;;;6.45;4.13;;;;;;;;;;5043471;28;20680;-60
2023/05/27 12:51:04;;;;;;;8.88;3.38;;;;;;;;;;5044050;28;20017;-57
2023/05/27 12:53:29;;;;;;;10.70;4.20;;;;;;;;;;5043609;28;20017;-58
2023/05/27 12:55:55;;;;;;;12.30;4.20;;;;;;;;;;5043516;28;20392;-59
2023/05/27 12:58:20;;;;;;;13.13;4.10;;;;;;;;;;5043156;28;20463;-61
2023/05/27 13:00:45;;;;;;;16.00;4.10;;;;;;;;;;5043577;28;20257;-57
2023/05/27 13:03:10;;;;;;;9.30;4.10;;;;;;;;;;5043552;28;20088;-60
2023/05/27 13:05:36;;;;;;;6.53;4.00;;;;;;;;;;5042580;28;20450;-60
2023/05/27 13:08:02;;;;;;;9.52;3.92;;;;;;;;;;5043647;28;20249;-60
2023/05/27 13:10:28;;;;;;;11.25;3.63;;;;;;;;;;5043303;28;20025;-60
2023/05/27 13:12:54;;;;;;;7.47;3.80;;;;;;;;;;5043607;28;20035;-60
2023/05/27 13:15:20;;;;;;;10.10;3.83;;;;;;;;;;5042759;28;20469;-60
2023/05/27 13:17:46;;;;;;;8.18;4.40;;;;;;;;;;5043398;28;20515;-60
2023/05/27 13:20:11;;;;;;;8.30;4.53;;;;;;;;;;5043395;28;20028;-61
2023/05/27 13:22:37;;;;;;;8.75;3.80;;;;;;;;;;5043370;28;20068;-60
2023/05/27 13:25:03;;;;;;;10.32;4.30;;;;;;;;;;5043327;28;20032;-60
2023/05/27 13:27:28;;;;;;;6.38;3.47;;;;;;;;;;5043224;28;20147;-60
2023/05/27 13:29:53;;;;;;;7.47;4.50;;;;;;;;;;5043286;28;20079;-57
2023/05/27 13:32:18;;;;;;;10.47;4.30;;;;;;;;;;4990892;28;20254;-60
2023/05/27 13:34:44;;;;;;;6.43;4.47;;;;;;;;;;5043302;28;20273;-60
2023/05/27 13:37:09;;;;;;;8.65;4.22;;;;;;;;;;5042694;28;20760;-60
2023/05/27 13:39:34;;;;;;;5.70;3.90;;;;;;;;;;5043017;28;20020;-60
2023/05/27 13:42:00;;;;;;;7.03;4.27;;;;;;;;;;5042974;28;20246;-59
2023/05/27 13:44:25;;;;;;;10.98;5.53;;;;;;;;;;5042877;28;20652;-60
2023/05/27 13:46:51;;;;;;;8.63;4.68;;;;;;;;;;5043130;28;20772;-59
2023/05/27 13:49:16;;;;;;;10.63;4.20;;;;;;;;;;5043233;28;20035;-60
2023/05/27 13:51:45;;;;;;;7.70;4.00;;;;;;;;;;5042831;28;20721;-58
2023/05/27 13:54:11;;;;;;;7.22;4.50;;;;;;;;;;5043011;28;20028;-60
2023/05/27 13:56:36;;;;;;;8.75;4.15;;;;;;;;;;5042796;28;20388;-60
2023/05/27 13:59:05;;;;;;;9.32;4.03;;;;;;;;;;5043199;28;20021;-60
2023/05/27 14:01:30;;;;;;;;;;;;;;;;;;5042980;28;20128;-60
2023/05/27 14:03:55;;;;;;;7.32;4.90;;;;;;;;;;5043082;28;19995;-61
2023/05/27 14:06:21;;;;;;;15.53;4.50;;;;;;;;;;5043182;28;20040;-59
2023/05/27 14:08:46;;;;;;;10.15;4.00;;;;;;;;;;5043168;28;20690;-60
2023/05/27 14:11:12;;;;;;;8.70;3.87;;;;;;;;;;5043093;28;20029;-60
2023/05/27 14:13:37;;;;;;;11.75;4.82;;;;;;;;;;5042692;28;20253;-59
2023/05/27 14:16:02;;;;;;;9.90;4.47;;;;;;;;;;5042589;28;20032;-60
2023/05/27 14:18:28;;;;;;;7.65;4.00;;;;;;;;;;5044482;28;20033;-61
2023/05/27 14:20:53;;;;;;;7.32;4.63;;;;;;;;;;5046725;28;20136;-60
2023/05/27 14:23:19;;;;;;;9.18;3.70;;;;;;;;;;5046752;28;20056;-59
2023/05/27 14:25:44;;;;;;;13.80;4.47;;;;;;;;;;5046498;28;20028;-59
2023/05/27 14:28:09;;;;;;;7.30;4.05;;;;;;;;;;5046596;28;20021;-60